createdAt,value
2024-02-19T00:00:29.775Z,129.84
2024-02-19T00:01:29.656Z,129.58
2024-02-19T00:02:29.602Z,130.06
2024-02-19T00:03:29.707Z,129.55
2024-02-19T00:04:29.800Z,129.90
2024-02-19T00:05:29.803Z,130.04
2024-02-19T00:06:29.857Z,128.79
2024-02-19T00:07:29.950Z,130.35
2024-02-19T00:08:29.984Z,128.27
2024-02-19T00:09:30.040Z,129.21
2024-02-19T00:10:30.091Z,127.39
2024-02-19T00:11:30.190Z,128.86
2024-02-19T00:12:30.322Z,129.03
2024-02-19T00:13:30.274Z,127.66
2024-02-19T00:14:30.339Z,126.99
2024-02-19T00:15:30.400Z,128.11
2024-02-19T00:16:30.459Z,127.92
2024-02-19T00:17:30.535Z,129.37
2024-02-19T00:18:30.678Z,127.57
2024-02-19T00:19:30.846Z,128.96
2024-02-19T00:20:30.725Z,126.69
2024-02-19T00:21:30.788Z,127.77
2024-02-19T00:22:30.836Z,127.21
2024-02-19T00:23:30.889Z,129.52
2024-02-19T00:24:30.973Z,128.11
2024-02-19T00:25:31.015Z,128.11
2024-02-19T00:26:31.087Z,130.02
2024-02-19T00:27:31.153Z,128.32
2024-02-19T00:28:31.259Z,130.98
2024-02-19T00:29:31.269Z,128.93
2024-02-19T00:30:31.356Z,131.49
2024-02-19T00:31:31.420Z,127.88
2024-02-19T00:32:31.542Z,129.41
2024-02-19T00:33:31.572Z,130.64
2024-02-19T00:34:31.680Z,129.26
2024-02-19T00:35:31.662Z,128.52
2024-02-19T00:36:31.716Z,129.27
2024-02-19T00:37:31.797Z,130.40
2024-02-19T00:38:31.836Z,129.29
2024-02-19T00:39:31.899Z,128.55
2024-02-19T00:40:31.981Z,130.48
2024-02-19T00:41:32.071Z,130.89
2024-02-19T00:42:32.118Z,129.11
2024-02-19T00:43:32.203Z,131.17
2024-02-19T00:44:32.227Z,130.21
2024-02-19T00:45:32.300Z,129.12
2024-02-19T00:46:32.400Z,128.56
2024-02-19T00:47:32.536Z,128.93
2024-02-19T00:48:32.509Z,128.12
2024-02-19T00:49:32.628Z,127.94
2024-02-19T00:50:32.605Z,127.97
2024-02-19T00:51:32.695Z,127.34
2024-02-19T00:52:32.801Z,125.22
2024-02-19T00:53:32.835Z,128.15
2024-02-19T00:54:32.873Z,126.88
2024-02-19T00:55:32.943Z,126.85
2024-02-19T00:56:33.056Z,128.36
2024-02-19T00:57:33.116Z,128.37
2024-02-19T00:58:33.151Z,126.75
2024-02-19T00:59:33.215Z,127.76
2024-02-19T01:00:33.305Z,126.22
2024-02-19T01:01:33.429Z,127.01
2024-02-19T01:02:33.412Z,127.19
2024-02-19T01:03:33.536Z,127.12
2024-02-19T01:04:33.729Z,127.08
2024-02-19T01:05:33.651Z,126.11
2024-02-19T01:06:33.693Z,126.78
2024-02-19T01:07:34.142Z,125.55
2024-02-19T01:08:33.843Z,127.45
2024-02-19T01:09:33.966Z,126.82
2024-02-19T01:10:33.948Z,126.94
2024-02-19T01:11:34.021Z,127.18
2024-02-19T01:12:34.129Z,127.39
2024-02-19T01:13:34.144Z,127.67
2024-02-19T01:14:34.201Z,127.08
2024-02-19T01:15:34.370Z,125.92
2024-02-19T01:16:34.315Z,126.57
2024-02-19T01:17:34.431Z,127.54
2024-02-19T01:18:34.661Z,125.94
2024-02-19T01:19:34.597Z,127.60
2024-02-19T01:20:34.593Z,125.83
2024-02-19T01:21:34.654Z,127.72
2024-02-19T01:22:34.733Z,126.20
2024-02-19T01:23:34.783Z,127.04
2024-02-19T01:24:34.880Z,128.82
2024-02-19T01:25:34.917Z,126.26
2024-02-19T01:26:34.987Z,127.38
2024-02-19T01:27:35.084Z,128.61
2024-02-19T01:28:35.111Z,127.94
2024-02-19T01:29:35.181Z,129.59
2024-02-19T01:30:35.350Z,127.96
2024-02-19T01:31:35.322Z,129.22
2024-02-19T01:32:35.406Z,129.57
2024-02-19T01:33:35.516Z,126.52
2024-02-19T01:34:35.665Z,129.52
2024-02-19T01:35:35.582Z,129.51
2024-02-19T01:36:35.816Z,129.69
2024-02-19T01:37:35.713Z,130.21
2024-02-19T01:38:35.775Z,130.23
2024-02-19T01:39:35.847Z,130.97
2024-02-19T01:40:35.931Z,130.19
2024-02-19T01:41:35.972Z,132.31
2024-02-19T01:42:36.097Z,130.92
2024-02-19T01:43:36.115Z,131.89
2024-02-19T01:44:36.219Z,131.53
2024-02-19T01:45:36.271Z,131.22
2024-02-19T01:46:36.326Z,133.74
2024-02-19T01:47:36.547Z,133.18
2024-02-19T01:48:36.510Z,132.60
2024-02-19T01:49:36.535Z,133.37
2024-02-19T01:50:36.597Z,133.55
2024-02-19T01:51:36.719Z,132.09
2024-02-19T01:52:36.726Z,132.07
2024-02-19T01:53:36.793Z,132.92
2024-02-19T01:54:36.999Z,133.88
2024-02-19T01:55:36.955Z,134.77
2024-02-19T01:56:36.970Z,133.90
2024-02-19T01:57:37.084Z,132.97
2024-02-19T01:58:37.122Z,133.07
2024-02-19T01:59:37.192Z,131.98
2024-02-19T02:00:37.370Z,132.20
2024-02-19T02:01:37.397Z,131.36
2024-02-19T02:02:37.398Z,133.32
2024-02-19T02:03:37.493Z,132.67
2024-02-19T02:04:37.513Z,131.73
2024-02-19T02:05:37.643Z,132.57
2024-02-19T02:06:37.694Z,131.26
2024-02-19T02:07:37.710Z,132.97
2024-02-19T02:08:37.787Z,132.72
2024-02-19T02:09:37.923Z,131.89
2024-02-19T02:10:37.925Z,129.07
2024-02-19T02:11:37.993Z,131.61
2024-02-19T02:12:38.091Z,131.82
2024-02-19T02:13:38.118Z,129.29
2024-02-19T02:14:38.202Z,130.51
2024-02-19T02:15:38.284Z,129.32
2024-02-19T02:16:38.348Z,130.12
2024-02-19T02:17:38.490Z,129.34
2024-02-19T02:18:38.558Z,127.87
2024-02-19T02:19:38.689Z,126.92
2024-02-19T02:20:38.594Z,127.57
2024-02-19T02:21:38.676Z,127.16
2024-02-19T02:22:38.743Z,127.00
2024-02-19T02:23:38.820Z,126.02
2024-02-19T02:24:38.906Z,125.99
2024-02-19T02:25:38.924Z,124.04
2024-02-19T02:26:39.002Z,123.11
2024-02-19T02:27:39.161Z,124.68
2024-02-19T02:28:39.181Z,125.88
2024-02-19T02:29:39.311Z,123.53
2024-02-19T02:30:39.335Z,123.61
2024-02-19T02:31:39.350Z,124.12
2024-02-19T02:32:39.440Z,122.67
2024-02-19T02:33:39.785Z,122.18
2024-02-19T02:34:39.641Z,123.11
2024-02-19T02:35:39.604Z,119.47
2024-02-19T02:36:39.710Z,122.52
2024-02-19T02:37:39.749Z,121.13
2024-02-19T02:38:39.805Z,120.05
2024-02-19T02:39:39.899Z,119.76
2024-02-19T02:40:39.952Z,120.90
2024-02-19T02:41:40.008Z,120.43
2024-02-19T02:42:40.125Z,120.03
2024-02-19T02:43:40.124Z,119.80
2024-02-19T02:44:40.214Z,119.20
2024-02-19T02:45:41.186Z,121.78
2024-02-19T02:46:40.350Z,120.34
2024-02-19T02:47:40.422Z,119.40
2024-02-19T02:48:40.615Z,121.90
2024-02-19T02:49:40.614Z,120.67
2024-02-19T02:50:40.588Z,121.96
2024-02-19T02:51:40.659Z,121.64
2024-02-19T02:52:40.723Z,122.46
2024-02-19T02:53:40.806Z,121.96
2024-02-19T02:54:40.917Z,122.66
2024-02-19T02:55:40.945Z,121.58
2024-02-19T02:56:41.016Z,122.53
2024-02-19T02:57:41.089Z,123.02
2024-02-19T02:58:41.101Z,123.62
2024-02-19T02:59:41.169Z,123.57
2024-02-19T03:00:41.334Z,122.97
2024-02-19T03:01:41.363Z,124.57
2024-02-19T03:02:41.366Z,126.39
2024-02-19T03:03:41.498Z,124.03
2024-02-19T03:04:41.686Z,123.23
2024-02-19T03:05:41.566Z,124.37
2024-02-19T03:06:41.715Z,123.54
2024-02-19T03:07:41.849Z,122.98
2024-02-19T03:08:41.899Z,124.21
2024-02-19T03:09:41.870Z,124.70
2024-02-19T03:10:41.941Z,124.10
2024-02-19T03:11:41.998Z,124.90
2024-02-19T03:12:42.070Z,123.67
2024-02-19T03:13:42.138Z,121.02
2024-02-19T03:14:42.182Z,121.12
2024-02-19T03:15:42.284Z,123.07
2024-02-19T03:16:42.307Z,122.95
2024-02-19T03:17:42.423Z,121.89
2024-02-19T03:18:42.471Z,120.84
2024-02-19T03:19:42.607Z,121.21
2024-02-19T03:20:42.603Z,122.86
2024-02-19T03:21:42.773Z,123.88
2024-02-19T03:22:42.732Z,123.48
2024-02-19T03:23:42.800Z,122.98
2024-02-19T03:24:42.892Z,123.14
2024-02-19T03:25:42.919Z,122.73
2024-02-19T03:26:43.011Z,121.94
2024-02-19T03:27:43.067Z,122.28
2024-02-19T03:28:43.092Z,123.18
2024-02-19T03:29:43.147Z,120.95
2024-02-19T03:30:43.278Z,121.14
2024-02-19T03:31:43.344Z,123.84
2024-02-19T03:32:43.542Z,122.34
2024-02-19T03:33:43.589Z,123.48
2024-02-19T03:34:43.516Z,121.50
2024-02-19T03:35:43.565Z,123.39
2024-02-19T03:36:43.662Z,123.46
2024-02-19T03:37:43.693Z,122.21
2024-02-19T03:38:43.769Z,122.57
2024-02-19T03:39:43.823Z,122.15
2024-02-19T03:40:43.888Z,120.29
2024-02-19T03:41:43.942Z,123.65
2024-02-19T03:42:44.002Z,123.91
2024-02-19T03:43:44.055Z,121.66
2024-02-19T03:44:44.134Z,122.40
2024-02-19T03:45:44.236Z,122.54
2024-02-19T03:46:44.255Z,121.92
2024-02-19T03:47:44.360Z,123.24
2024-02-19T03:48:44.475Z,121.40
2024-02-19T03:49:44.495Z,120.73
2024-02-19T03:50:44.545Z,120.85
2024-02-19T03:51:44.642Z,120.01
2024-02-19T03:52:44.677Z,121.32
2024-02-19T03:53:44.716Z,118.53
2024-02-19T03:54:44.885Z,116.68
2024-02-19T03:55:44.836Z,118.18
2024-02-19T03:56:44.905Z,114.80
2024-02-19T03:57:44.973Z,115.70
2024-02-19T03:58:45.008Z,115.75
2024-02-19T03:59:45.073Z,113.22
2024-02-19T04:00:45.218Z,114.21
2024-02-19T04:01:45.227Z,114.04
2024-02-19T04:02:45.242Z,114.65
2024-02-19T04:03:45.391Z,113.70
2024-02-19T04:04:45.546Z,113.83
2024-02-19T04:05:45.421Z,111.70
2024-02-19T04:06:45.664Z,111.80
2024-02-19T04:07:45.591Z,110.60
2024-02-19T04:08:45.624Z,110.92
2024-02-19T04:09:45.745Z,108.38
2024-02-19T04:10:45.745Z,108.25
2024-02-19T04:11:45.856Z,106.54
2024-02-19T04:12:45.894Z,104.61
2024-02-19T04:13:45.946Z,105.54
2024-02-19T04:14:45.992Z,104.66
2024-02-19T04:15:46.067Z,103.20
2024-02-19T04:16:53.759Z,50.00
2024-02-19T04:17:53.862Z,50.00
2024-02-19T04:18:54.015Z,50.00
2024-02-19T04:19:53.892Z,50.00
2024-02-19T04:20:53.918Z,50.00
2024-02-19T04:21:53.980Z,51.80
2024-02-19T04:22:53.924Z,49.97
2024-02-19T04:23:53.925Z,51.50
2024-02-19T04:24:53.978Z,50.15
2024-02-19T04:25:53.926Z,52.23
2024-02-19T04:26:53.938Z,50.63
2024-02-19T04:27:53.984Z,52.86
2024-02-19T04:28:53.914Z,51.77
2024-02-19T04:29:53.935Z,53.41
2024-02-19T04:31:01.661Z,50.00
2024-02-19T04:32:01.689Z,50.00
2024-02-19T04:33:01.780Z,50.00
2024-02-19T04:34:02.071Z,50.00
2024-02-19T04:35:01.834Z,50.00
2024-02-19T04:36:01.736Z,52.73
2024-02-19T04:37:01.745Z,53.83
2024-02-19T04:38:01.766Z,53.84
2024-02-19T04:39:01.711Z,51.97
2024-02-19T04:40:01.898Z,51.72
2024-02-19T04:41:01.749Z,51.15
2024-02-19T04:42:01.731Z,50.48
2024-02-19T04:43:01.740Z,51.93
2024-02-19T04:44:01.716Z,51.44
2024-02-19T04:45:01.716Z,50.63
2024-02-19T04:46:01.736Z,51.47
2024-02-19T04:47:01.719Z,50.99
2024-02-19T04:48:01.801Z,52.42
2024-02-19T04:49:01.870Z,53.33
2024-02-19T04:50:01.903Z,53.08
2024-02-19T04:51:01.738Z,52.84
2024-02-19T04:52:01.804Z,52.69
2024-02-19T04:53:01.738Z,54.10
2024-02-19T04:54:01.736Z,52.82
2024-02-19T04:55:01.824Z,54.64
2024-02-19T04:56:01.740Z,56.94
2024-02-19T04:57:01.726Z,56.09
2024-02-19T04:58:01.770Z,56.86
2024-02-19T04:59:01.742Z,57.52
2024-02-19T05:00:01.783Z,57.90
2024-02-19T05:01:01.858Z,57.61
2024-02-19T05:02:02.045Z,56.70
2024-02-19T05:03:01.742Z,57.30
2024-02-19T05:04:01.915Z,56.09
2024-02-19T05:05:01.960Z,58.63
2024-02-19T05:06:01.878Z,56.44
2024-02-19T05:07:01.919Z,56.95
2024-02-19T05:08:01.911Z,58.40
2024-02-19T05:09:01.988Z,54.99
2024-02-19T05:10:02.104Z,56.73
2024-02-19T05:11:02.074Z,56.21
2024-02-19T05:12:02.129Z,54.70
2024-02-19T05:13:02.220Z,55.03
2024-02-19T05:14:02.246Z,56.02
2024-02-19T05:15:02.305Z,56.89
2024-02-19T05:16:02.397Z,55.79
2024-02-19T05:17:02.389Z,53.62
2024-02-19T05:18:02.503Z,53.08
2024-02-19T05:19:02.608Z,54.48
2024-02-19T05:20:02.658Z,53.03
2024-02-19T05:21:02.611Z,54.02
2024-02-19T05:22:02.718Z,51.91
2024-02-19T05:23:02.704Z,52.37
2024-02-19T05:24:02.774Z,53.95
2024-02-19T05:25:02.880Z,52.10
2024-02-19T05:26:04.574Z,50.93
2024-02-19T05:27:03.180Z,50.26
2024-02-19T05:28:03.245Z,51.32
2024-02-19T05:29:03.226Z,50.00
2024-02-19T05:30:03.266Z,53.60
2024-02-19T05:31:03.483Z,52.53
2024-02-19T05:32:03.382Z,51.91
2024-02-19T05:33:03.437Z,50.99
2024-02-19T05:34:04.276Z,50.00
2024-02-19T05:35:03.677Z,51.51
2024-02-19T05:36:03.597Z,52.14
2024-02-19T05:37:03.665Z,50.50
2024-02-19T05:38:03.713Z,51.55
2024-02-19T05:39:03.789Z,51.89
2024-02-19T05:40:03.924Z,51.02
2024-02-19T05:41:03.906Z,50.28
2024-02-19T05:42:03.929Z,53.90
2024-02-19T05:43:04.000Z,53.56
2024-02-19T05:44:04.013Z,51.96
2024-02-19T05:45:04.061Z,50.75
2024-02-19T05:46:04.262Z,52.02
2024-02-19T05:47:04.183Z,50.84
2024-02-19T05:48:04.340Z,51.48
2024-02-19T05:49:04.409Z,50.92
2024-02-19T05:50:04.418Z,50.84
2024-02-19T05:51:04.449Z,53.03
2024-02-19T05:52:04.532Z,51.96
2024-02-19T05:53:04.539Z,50.19
2024-02-19T05:54:04.594Z,52.28
2024-02-19T05:55:04.634Z,50.53
2024-02-19T05:56:04.697Z,51.41
2024-02-19T05:57:04.725Z,52.24
2024-02-19T05:58:04.837Z,50.69
2024-02-19T05:59:04.824Z,50.48
2024-02-19T06:00:04.889Z,50.90
2024-02-19T06:01:05.022Z,51.83
2024-02-19T06:02:05.207Z,51.69
2024-02-19T06:03:05.053Z,53.22
2024-02-19T06:04:05.110Z,52.27
2024-02-19T06:05:07.204Z,51.31
2024-02-19T06:06:05.200Z,50.60
2024-02-19T06:07:05.320Z,50.80
2024-02-19T06:08:05.264Z,50.65
2024-02-19T06:09:05.278Z,50.89
2024-02-19T06:10:05.329Z,53.49
2024-02-19T06:11:05.369Z,50.56
2024-02-19T06:12:05.457Z,50.00
2024-02-19T06:13:05.492Z,50.92
2024-02-19T06:14:05.450Z,52.46
2024-02-19T06:15:05.493Z,50.00
2024-02-19T06:16:05.541Z,50.00
2024-02-19T06:17:05.537Z,51.92
2024-02-19T06:18:05.667Z,51.88
2024-02-19T06:19:05.718Z,51.13
2024-02-19T06:20:05.757Z,50.00
2024-02-19T06:21:05.785Z,50.00
2024-02-19T06:22:05.805Z,52.88
2024-02-19T06:23:05.902Z,51.97
2024-02-19T06:24:05.857Z,54.32
2024-02-19T06:25:05.939Z,51.14
2024-02-19T06:26:05.979Z,51.56
2024-02-19T06:27:06.177Z,51.08
2024-02-19T06:28:06.496Z,50.29
2024-02-19T06:29:06.681Z,52.91
2024-02-19T06:30:06.220Z,53.35
2024-02-19T06:31:06.329Z,55.01
2024-02-19T06:32:06.353Z,58.46
2024-02-19T06:33:07.413Z,61.44
2024-02-19T06:34:06.588Z,60.02
2024-02-19T06:35:06.641Z,58.88
2024-02-19T06:36:06.558Z,50.00
2024-02-19T06:37:06.645Z,57.11
2024-02-19T06:38:06.806Z,52.49
2024-02-19T06:39:06.713Z,59.00
2024-02-19T06:40:06.825Z,62.42
2024-02-19T06:41:06.853Z,68.61
2024-02-19T06:42:06.894Z,72.43
2024-02-19T06:43:07.301Z,83.54
2024-02-19T06:44:06.993Z,88.89
2024-02-19T06:45:07.028Z,97.93
2024-02-19T06:46:07.204Z,103.04
2024-02-19T06:47:07.162Z,111.47
2024-02-19T06:48:07.283Z,117.59
2024-02-19T06:49:07.325Z,127.54
2024-02-19T06:50:07.204Z,133.23
2024-02-19T06:51:07.178Z,142.38
2024-02-19T06:52:07.272Z,143.13
2024-02-19T06:53:07.339Z,157.90
2024-02-19T06:54:07.351Z,165.71
2024-02-19T06:55:07.501Z,171.43
2024-02-19T06:56:07.440Z,178.86
2024-02-19T06:57:07.512Z,182.55
2024-02-19T06:58:07.623Z,188.59
2024-02-19T06:59:07.782Z,192.64
2024-02-19T07:00:07.988Z,196.68
2024-02-19T07:01:07.983Z,198.50
2024-02-19T07:02:08.533Z,199.15
2024-02-19T07:03:07.876Z,197.66
2024-02-19T07:04:08.419Z,199.07
2024-02-19T07:05:08.629Z,200.00
2024-02-19T07:06:08.094Z,197.50
2024-02-19T07:07:08.151Z,196.77
2024-02-19T07:08:08.182Z,196.76
2024-02-19T07:09:08.309Z,195.54
2024-02-19T07:10:08.403Z,197.25
2024-02-19T07:11:08.370Z,195.52
2024-02-19T07:12:08.532Z,195.72
2024-02-19T07:13:08.865Z,195.19
2024-02-19T07:14:08.526Z,194.16
2024-02-19T07:15:08.575Z,191.21
2024-02-19T07:16:08.688Z,190.64
2024-02-19T07:17:08.694Z,190.65
2024-02-19T07:18:10.548Z,188.02
2024-02-19T07:19:08.856Z,186.53
2024-02-19T07:20:08.943Z,185.72
2024-02-19T07:21:08.782Z,184.77
2024-02-19T07:22:08.799Z,180.66
2024-02-19T07:23:08.782Z,181.20
2024-02-19T07:24:08.768Z,181.82
2024-02-19T07:25:16.585Z,179.82
2024-02-19T07:26:09.853Z,179.91
2024-02-19T07:27:08.767Z,180.35
2024-02-19T07:28:08.876Z,180.75
2024-02-19T07:29:08.800Z,181.88
2024-02-19T07:30:08.765Z,184.29
2024-02-19T07:31:08.799Z,183.65
2024-02-19T07:32:08.771Z,183.77
2024-02-19T07:33:08.963Z,182.53
2024-02-19T07:34:09.167Z,183.66
2024-02-19T07:35:09.078Z,183.84
2024-02-19T07:36:08.991Z,184.80
2024-02-19T07:37:09.102Z,183.76
2024-02-19T07:38:09.142Z,186.52
2024-02-19T07:39:09.185Z,186.77
2024-02-19T07:40:09.313Z,187.41
2024-02-19T07:41:09.366Z,188.03
2024-02-19T07:42:09.378Z,192.74
2024-02-19T07:43:09.877Z,194.48
2024-02-19T07:44:09.488Z,191.37
2024-02-19T07:45:09.539Z,196.13
2024-02-19T07:46:09.690Z,194.42
2024-02-19T07:47:09.658Z,194.27
2024-02-19T07:48:09.839Z,195.85
2024-02-19T07:49:09.961Z,196.39
2024-02-19T07:50:09.917Z,196.96
2024-02-19T07:51:09.862Z,200.00
2024-02-19T07:52:09.960Z,197.18
2024-02-19T07:53:09.932Z,200.00
2024-02-19T07:54:10.001Z,199.26
2024-02-19T07:55:10.069Z,199.12
2024-02-19T07:56:10.052Z,198.88
2024-02-19T07:57:10.103Z,199.75
2024-02-19T07:58:10.210Z,199.35
2024-02-19T07:59:10.261Z,199.84
2024-02-19T08:00:10.198Z,199.70
2024-02-19T08:01:10.282Z,199.91
2024-02-19T08:02:10.323Z,199.84
2024-02-19T08:03:10.343Z,199.58
2024-02-19T08:04:10.376Z,199.62
2024-02-19T08:05:10.541Z,199.53
2024-02-19T08:06:10.362Z,199.27
2024-02-19T08:07:10.484Z,199.51
2024-02-19T08:08:10.454Z,200.00
2024-02-19T08:09:10.439Z,200.00
2024-02-19T08:10:10.507Z,199.53
2024-02-19T08:11:10.504Z,193.00
2024-02-19T08:12:10.636Z,184.45
2024-02-19T08:13:10.750Z,178.96
2024-02-19T08:14:10.685Z,174.62
2024-02-19T08:15:10.734Z,169.85
2024-02-19T08:16:10.863Z,162.27
2024-02-19T08:17:10.863Z,156.56
2024-02-19T08:18:10.957Z,148.88
2024-02-19T08:19:11.070Z,145.50
2024-02-19T08:20:10.894Z,138.08
2024-02-19T08:21:10.931Z,136.49
2024-02-19T08:22:10.939Z,131.56
2024-02-19T08:23:10.966Z,128.92
2024-02-19T08:24:10.979Z,124.34
2024-02-19T08:25:11.025Z,120.75
2024-02-19T08:26:11.016Z,117.98
2024-02-19T08:27:11.050Z,115.67
2024-02-19T08:28:11.405Z,110.69
2024-02-19T08:29:11.138Z,107.21
2024-02-19T08:30:11.192Z,101.34
2024-02-19T08:31:11.197Z,101.77
2024-02-19T08:32:11.185Z,99.18
2024-02-19T08:33:11.356Z,99.50
2024-02-19T08:34:12.456Z,103.98
2024-02-19T08:35:11.363Z,105.06
2024-02-19T08:36:11.245Z,110.96
2024-02-19T08:37:11.274Z,115.32
2024-02-19T08:38:11.255Z,123.53
2024-02-19T08:39:11.353Z,127.23
2024-02-19T08:40:11.319Z,130.20
2024-02-19T08:41:11.265Z,134.23
2024-02-19T08:42:11.329Z,138.28
2024-02-19T08:43:11.315Z,143.91
2024-02-19T08:44:11.258Z,150.32
2024-02-19T08:45:11.306Z,153.10
2024-02-19T08:46:11.317Z,156.69
2024-02-19T08:47:11.247Z,157.91
2024-02-19T08:48:11.465Z,159.08
2024-02-19T08:49:11.408Z,163.31
2024-02-19T08:50:11.405Z,162.23
2024-02-19T08:51:11.252Z,163.60
2024-02-19T08:52:11.326Z,167.59
2024-02-19T08:53:11.346Z,170.11
2024-02-19T08:54:11.253Z,174.50
2024-02-19T08:55:11.297Z,178.69
2024-02-19T08:56:11.260Z,181.18
2024-02-19T08:57:11.261Z,184.02
2024-02-19T08:58:11.354Z,185.41
2024-02-19T08:59:11.270Z,187.50
2024-02-19T09:00:11.295Z,189.22
2024-02-19T09:01:11.399Z,190.78
2024-02-19T09:02:11.321Z,192.43
2024-02-19T09:03:11.307Z,194.02
2024-02-19T09:04:11.359Z,195.63
2024-02-19T09:05:11.420Z,196.98
2024-02-19T09:06:11.292Z,198.94
2024-02-19T09:07:11.373Z,198.86
2024-02-19T09:08:11.259Z,199.15
2024-02-19T09:09:11.273Z,199.05
2024-02-19T09:10:11.778Z,199.50
2024-02-19T09:11:11.325Z,198.43
2024-02-19T09:12:11.268Z,199.86
2024-02-19T09:13:11.320Z,199.85
2024-02-19T09:14:11.284Z,198.15
2024-02-19T09:15:11.264Z,198.27
2024-02-19T09:16:11.363Z,197.81
2024-02-19T09:17:11.272Z,198.73
2024-02-19T09:18:11.368Z,199.38
2024-02-19T09:19:11.384Z,199.80
2024-02-19T09:20:11.321Z,198.50
2024-02-19T09:21:11.292Z,198.77
2024-02-19T09:22:11.312Z,197.27
2024-02-19T09:23:11.281Z,194.92
2024-02-19T09:24:11.343Z,194.54
2024-02-19T09:25:11.385Z,192.52
2024-02-19T09:26:11.430Z,193.66
2024-02-19T09:27:11.462Z,189.21
2024-02-19T09:28:11.552Z,188.09
2024-02-19T09:29:11.550Z,191.26
2024-02-19T09:30:11.593Z,191.44
2024-02-19T09:31:11.656Z,193.46
2024-02-19T09:32:11.632Z,191.23
2024-02-19T09:33:11.838Z,192.47
2024-02-19T09:34:11.806Z,192.35
2024-02-19T09:35:11.911Z,188.23
2024-02-19T09:36:11.865Z,188.46
2024-02-19T09:37:11.917Z,190.44
2024-02-19T09:38:11.918Z,193.03
2024-02-19T09:39:12.346Z,194.34
2024-02-19T09:40:11.925Z,198.45
2024-02-19T09:41:11.930Z,200.00
2024-02-19T09:42:11.979Z,198.95
2024-02-19T09:43:12.042Z,200.00
2024-02-19T09:44:12.035Z,195.30
2024-02-19T09:45:12.075Z,198.57
2024-02-19T09:46:12.231Z,195.37
2024-02-19T09:47:12.186Z,199.79
2024-02-19T09:48:12.378Z,197.96
2024-02-19T09:49:12.446Z,198.28
2024-02-19T09:50:12.480Z,198.86
2024-02-19T09:51:16.440Z,197.10
2024-02-19T09:52:13.424Z,197.20
2024-02-19T09:53:12.374Z,198.01
2024-02-19T09:54:12.878Z,198.46
2024-02-19T09:55:12.412Z,198.95
2024-02-19T09:56:12.475Z,200.43
2024-02-19T09:57:12.359Z,199.20
2024-02-19T09:58:12.395Z,198.82
2024-02-19T09:59:12.366Z,196.00
2024-02-19T10:00:12.408Z,196.22
2024-02-19T10:01:12.418Z,194.96
2024-02-19T10:02:12.439Z,190.11
2024-02-19T10:03:12.372Z,185.62
2024-02-19T10:04:12.444Z,185.86
2024-02-19T10:05:12.970Z,176.36
2024-02-19T10:06:12.471Z,174.10
2024-02-19T10:07:12.458Z,171.51
2024-02-19T10:08:12.451Z,162.00
2024-02-19T10:09:12.867Z,163.42
2024-02-19T10:10:12.648Z,164.27
2024-02-19T10:11:12.745Z,161.11
2024-02-19T10:12:12.703Z,156.58
2024-02-19T10:13:12.750Z,157.48
2024-02-19T10:14:12.720Z,154.72
2024-02-19T10:15:12.763Z,148.91
2024-02-19T10:16:12.943Z,151.00
2024-02-19T10:17:12.978Z,146.02
2024-02-19T10:18:12.920Z,141.27
2024-02-19T10:19:13.201Z,139.50
2024-02-19T10:20:12.883Z,141.81
2024-02-19T10:21:12.880Z,137.61
2024-02-19T10:22:12.943Z,135.56
2024-02-19T10:23:12.934Z,136.43
2024-02-19T10:24:13.039Z,132.77
2024-02-19T10:25:13.104Z,139.85
2024-02-19T10:26:13.116Z,128.17
2024-02-19T10:27:13.113Z,99.59
2024-02-19T10:28:13.194Z,78.07
2024-02-19T10:29:13.386Z,69.37
2024-02-19T10:30:13.253Z,58.14
2024-02-19T10:31:13.345Z,50.00
2024-02-19T10:32:13.383Z,50.00
2024-02-19T10:33:13.544Z,50.97
2024-02-19T10:34:13.966Z,50.91
2024-02-19T10:35:13.449Z,51.80
2024-02-19T10:36:13.468Z,55.83
2024-02-19T10:37:13.597Z,59.26
2024-02-19T10:38:13.601Z,68.66
2024-02-19T10:39:13.672Z,74.37
2024-02-19T10:40:13.840Z,80.66
2024-02-19T10:41:13.756Z,81.81
2024-02-19T10:42:13.784Z,86.02
2024-02-19T10:43:13.941Z,89.63
2024-02-19T10:44:13.975Z,95.08
2024-02-19T10:45:14.073Z,98.82
2024-02-19T10:46:14.129Z,103.77
2024-02-19T10:47:14.093Z,106.85
2024-02-19T10:48:14.216Z,111.68
2024-02-19T10:49:14.469Z,115.53
2024-02-19T10:50:14.309Z,118.29
2024-02-19T10:51:14.318Z,120.04
2024-02-19T10:52:14.405Z,124.68
2024-02-19T10:53:14.493Z,131.56
2024-02-19T10:54:14.481Z,132.38
2024-02-19T10:55:17.341Z,132.20
2024-02-19T10:56:15.616Z,132.45
2024-02-19T10:57:14.596Z,133.57
2024-02-19T10:58:14.634Z,136.36
2024-02-19T10:59:14.577Z,139.50
2024-02-19T11:00:14.590Z,147.14
2024-02-19T11:01:15.389Z,150.70
2024-02-19T11:02:14.634Z,152.04
2024-02-19T11:03:14.843Z,161.47
2024-02-19T11:04:14.616Z,168.47
2024-02-19T11:05:14.594Z,162.62
2024-02-19T11:06:14.723Z,167.03
2024-02-19T11:07:14.755Z,167.14
2024-02-19T11:08:14.763Z,165.55
2024-02-19T11:09:14.874Z,166.95
2024-02-19T11:10:14.975Z,166.69
2024-02-19T11:11:15.008Z,167.36
2024-02-19T11:12:15.062Z,171.74
2024-02-19T11:13:15.067Z,169.02
2024-02-19T11:14:15.132Z,173.08
2024-02-19T11:15:15.221Z,171.31
2024-02-19T11:16:15.235Z,177.66
2024-02-19T11:17:15.291Z,175.31
2024-02-19T11:18:15.415Z,175.67
2024-02-19T11:19:15.508Z,177.22
2024-02-19T11:20:15.900Z,177.48
2024-02-19T11:21:15.500Z,170.89
2024-02-19T11:22:15.654Z,167.97
2024-02-19T11:23:15.626Z,160.14
2024-02-19T11:24:15.703Z,150.28
2024-02-19T11:25:15.783Z,140.41
2024-02-19T11:26:15.805Z,129.57
2024-02-19T11:27:15.862Z,120.44
2024-02-19T11:28:15.867Z,110.29
2024-02-19T11:29:15.879Z,110.25
2024-02-19T11:30:15.945Z,106.35
2024-02-19T11:31:16.005Z,104.36
2024-02-19T11:32:15.928Z,106.90
2024-02-19T11:33:15.997Z,113.77
2024-02-19T11:34:15.965Z,116.22
2024-02-19T11:35:16.008Z,125.21
2024-02-19T11:36:15.991Z,127.90
2024-02-19T11:37:16.081Z,132.02
2024-02-19T11:38:16.104Z,143.14
2024-02-19T11:39:16.142Z,150.04
2024-02-19T11:40:16.249Z,152.18
2024-02-19T11:41:16.280Z,155.82
2024-02-19T11:42:16.696Z,155.44
2024-02-19T11:43:16.467Z,159.22
2024-02-19T11:44:16.505Z,158.94
2024-02-19T11:45:16.615Z,160.53
2024-02-19T11:46:16.616Z,175.97
2024-02-19T11:47:16.797Z,184.31
2024-02-19T11:48:16.802Z,189.30
2024-02-19T11:49:16.862Z,193.79
2024-02-19T11:50:16.869Z,193.04
2024-02-19T11:51:16.890Z,194.25
2024-02-19T11:52:16.992Z,197.62
2024-02-19T11:53:17.011Z,196.20
2024-02-19T11:54:17.054Z,194.78
2024-02-19T11:55:17.139Z,192.32
2024-02-19T11:56:17.165Z,191.88
2024-02-19T11:57:17.208Z,188.12
2024-02-19T11:58:17.310Z,186.96
2024-02-19T11:59:17.328Z,186.68
2024-02-19T12:00:17.355Z,188.09
2024-02-19T12:01:17.499Z,187.21
2024-02-19T12:02:17.554Z,183.11
2024-02-19T12:03:17.508Z,182.95
2024-02-19T12:04:17.606Z,182.83
2024-02-19T12:05:17.676Z,183.07
2024-02-19T12:06:17.678Z,181.29
2024-02-19T12:07:17.759Z,183.45
2024-02-19T12:08:17.794Z,182.57
2024-02-19T12:09:17.794Z,185.42
2024-02-19T12:10:17.885Z,183.19
2024-02-19T12:11:17.932Z,184.89
2024-02-19T12:12:17.934Z,181.43
2024-02-19T12:13:17.996Z,179.63
2024-02-19T12:14:18.498Z,174.82
2024-02-19T12:15:18.086Z,174.24
2024-02-19T12:16:18.206Z,168.95
2024-02-19T12:17:18.154Z,163.72
2024-02-19T12:18:18.308Z,154.95
2024-02-19T12:19:18.573Z,144.84
2024-02-19T12:20:18.361Z,135.21
2024-02-19T12:21:18.374Z,124.37
2024-02-19T12:22:18.440Z,118.07
2024-02-19T12:23:18.409Z,108.46
2024-02-19T12:24:18.439Z,93.07
2024-02-19T12:25:18.472Z,87.43
2024-02-19T12:26:18.556Z,78.04
2024-02-19T12:27:18.615Z,52.82
2024-02-19T12:28:18.593Z,52.63
2024-02-19T12:29:18.604Z,54.68
2024-02-19T12:30:18.630Z,50.44
2024-02-19T12:31:18.725Z,50.09
2024-02-19T12:32:18.701Z,49.64
2024-02-19T12:33:18.914Z,50.00
2024-02-19T12:34:19.025Z,50.19
2024-02-19T12:37:19.036Z,50.74